Overview Statistics Trail Chart Weather Telemetry Raw packets
 

This is the latest recevied weather packets stored in our database for station/object K5KVN. If no packets are shown the sender has not sent any weather packets the latest 10 day(s).

<< 2 3 4 5 6 7 8 >>
Time Temp. Humidity Pressure Rain* Wind** Luminosity Snow
1788628722 35.56° C 47% 1016.8 hPa 0 mm - - -
1788628122 36.67° C 47% 1016.9 hPa 0 mm - - -
1788627521 36.11° C 47% 1016.9 hPa 0 mm - - -
1788626921 35.56° C 49% 1017 hPa 0 mm - - -
1788626321 35.56° C 48% 1017.1 hPa 0 mm - - -
1788625719 35° C 50% 1017.2 hPa 0 mm - - -
1788625117 34.44° C 51% 1017.2 hPa 0 mm - - -
1788624515 35° C 52% 1017.2 hPa 0 mm - - -
1788623916 34.44° C 52% 1017.2 hPa 0 mm - - -
1788623315 34.44° C 52% 1017.2 hPa 0 mm - - -
1788622716 34.44° C 52% 1017.3 hPa 0 mm - - -
1788622176 33.89° C 56% 1017.2 hPa 0 mm - - -
1788621571 33.33° C 55% 1017.2 hPa 0 mm - - -
1788620913 32.78° C 58% 1017.1 hPa 0 mm - - -
1788620313 32.22° C 59% 1017.1 hPa 0 mm - - -
1788619711 31.11° C 64% 1016.9 hPa 0 mm - - -
1788619112 30.56° C 65% 1016.9 hPa 0 mm - - -
1788618512 30° C 66% 1017 hPa 0 mm - - -
1788617910 29.44° C 68% 1017 hPa 0 mm - - -
1788617309 28.89° C 69% 1017 hPa 0 mm - - -
1788616708 28.33° C 72% 1016.9 hPa 0 mm - - -
1788616107 27.22° C 76% 1016.9 hPa 0 mm - - -
1788615507 26.11° C 80% 1016.9 hPa 0 mm - - -
1788614905 25° C 84% 1017 hPa 0 mm - - -
1788614305 23.89° C 89% 1016.9 hPa 0 mm - - -

* Rain latest hour (hover to see other rain measurements)
** Current wind speed in m/s (hover to see current wind gust speed)